createdAt,value
2023-01-13T00:04:47.747Z,10.70
2023-01-13T00:09:51.165Z,12.50
2023-01-13T00:14:54.998Z,9.90
2023-01-13T00:19:58.514Z,8.30
2023-01-13T00:25:02.414Z,12.40
2023-01-13T00:30:07.890Z,9.50
2023-01-13T00:35:11.272Z,9.10
2023-01-13T00:40:14.827Z,10.10
2023-01-13T00:45:18.330Z,9.70
2023-01-13T00:50:21.689Z,9.30
2023-01-13T00:55:25.059Z,10.90
2023-01-13T01:00:28.419Z,9.90
2023-01-13T01:05:34.698Z,12.90
2023-01-13T01:10:41.457Z,10.70
2023-01-13T01:15:45.353Z,10.10
2023-01-13T01:20:48.709Z,10.40
2023-01-13T01:25:52.150Z,10.10
2023-01-13T01:30:55.798Z,11.80
2023-01-13T01:36:01.571Z,11.20
2023-01-13T01:41:05.481Z,11.40
2023-01-13T01:46:09.222Z,10.40
2023-01-13T01:51:14.542Z,11.00
2023-01-13T01:56:19.536Z,11.30
2023-01-13T02:01:23.030Z,13.20
2023-01-13T02:06:28.765Z,12.60
2023-01-13T02:11:53.236Z,10.30
2023-01-13T02:17:33.938Z,11.10
2023-01-13T02:23:02.514Z,9.40
2023-01-13T02:28:25.894Z,9.60
2023-01-13T02:33:51.568Z,10.00
2023-01-13T02:39:17.598Z,9.70
2023-01-13T02:44:26.841Z,9.40
2023-01-13T02:49:38.442Z,9.80
2023-01-13T02:54:48.263Z,7.70
2023-01-13T02:59:55.965Z,8.50
2023-01-13T03:05:00.769Z,7.00
2023-01-13T03:10:07.229Z,6.60
2023-01-13T03:15:40.729Z,6.60
2023-01-13T03:20:55.558Z,6.60
2023-01-13T03:26:16.115Z,6.60
2023-01-13T03:31:30.323Z,5.90
2023-01-13T03:36:36.940Z,6.60
2023-01-13T03:42:04.670Z,7.30
2023-01-13T03:47:21.097Z,7.70
2023-01-13T03:52:39.650Z,6.10
2023-01-13T03:58:08.712Z,8.30
2023-01-13T04:03:20.861Z,8.70
2023-01-13T04:08:29.501Z,8.70
2023-01-13T04:13:40.088Z,10.20
2023-01-13T04:18:43.720Z,8.40
2023-01-13T04:23:51.772Z,8.40
2023-01-13T04:28:55.663Z,9.10
2023-01-13T04:33:58.933Z,11.60
2023-01-13T04:39:03.861Z,8.40
2023-01-13T04:44:07.212Z,10.40
2023-01-13T04:49:10.639Z,8.90
2023-01-13T04:54:14.049Z,9.50
2023-01-13T04:59:17.437Z,11.70
2023-01-13T05:04:20.923Z,12.20
2023-01-13T05:09:24.216Z,10.60
2023-01-13T05:14:48.904Z,13.00
2023-01-13T05:19:52.268Z,10.60
2023-01-13T05:25:14.245Z,13.50
2023-01-13T05:30:18.830Z,12.10
2023-01-13T05:35:22.574Z,12.70
2023-01-13T05:40:44.528Z,10.70
2023-01-13T05:46:09.381Z,11.10
2023-01-13T05:51:14.492Z,11.60
2023-01-13T05:56:18.339Z,10.90
2023-01-13T06:01:21.887Z,12.10
2023-01-13T06:06:25.241Z,9.00
2023-01-13T06:11:28.829Z,11.10
2023-01-13T06:16:32.317Z,11.80
2023-01-13T06:21:36.179Z,11.00
2023-01-13T06:26:44.448Z,11.60
2023-01-13T06:31:48.515Z,10.80
2023-01-13T06:36:54.996Z,12.30
2023-01-13T06:42:18.376Z,10.40
2023-01-13T06:47:22.886Z,9.00
2023-01-13T06:52:27.837Z,9.70
2023-01-13T06:57:34.794Z,8.90
2023-01-13T07:02:38.063Z,12.90
2023-01-13T07:07:43.171Z,9.00
2023-01-13T07:13:05.148Z,9.80
2023-01-13T07:18:08.792Z,11.00
2023-01-13T07:23:12.210Z,9.20
2023-01-13T07:28:16.233Z,9.90
2023-01-13T07:33:20.172Z,14.10
2023-01-13T07:38:24.540Z,13.30
2023-01-13T07:43:33.827Z,12.70
2023-01-13T07:48:37.590Z,13.90
2023-01-13T07:53:41.464Z,12.20
2023-01-13T08:04:15.812Z,11.40
2023-01-13T08:09:28.449Z,15.40
2023-01-13T08:14:37.873Z,11.20
2023-01-13T08:19:42.262Z,11.90
2023-01-13T08:24:51.675Z,13.10
2023-01-13T08:30:00.554Z,18.00
2023-01-13T08:35:04.798Z,19.60
2023-01-13T08:40:10.119Z,13.50
2023-01-13T08:45:14.190Z,13.20
2023-01-13T08:50:19.196Z,14.60
2023-01-13T08:55:23.732Z,17.00
2023-01-13T09:00:27.673Z,13.40
2023-01-13T09:05:31.655Z,18.10
2023-01-13T09:10:37.860Z,16.00
2023-01-13T09:15:51.267Z,15.90
2023-01-13T09:20:54.950Z,12.30
2023-01-13T09:25:59.439Z,15.70
2023-01-13T09:31:02.800Z,15.20
2023-01-13T09:36:10.875Z,12.60
2023-01-13T09:41:39.098Z,13.40
2023-01-13T09:46:58.674Z,14.30
2023-01-13T09:52:11.027Z,14.60
2023-01-13T09:57:19.689Z,14.70
2023-01-13T10:02:42.889Z,15.90
2023-01-13T10:07:58.171Z,12.00
2023-01-13T10:13:16.692Z,13.40
2023-01-13T10:18:33.484Z,11.60
2023-01-13T10:24:01.442Z,12.30
2023-01-13T10:29:19.631Z,10.80
2023-01-13T10:34:24.428Z,10.90
2023-01-13T10:39:29.075Z,11.00
2023-01-13T10:44:32.686Z,8.60
2023-01-13T10:49:39.220Z,9.90
2023-01-13T10:54:52.683Z,8.10
2023-01-13T10:59:56.762Z,9.40
2023-01-13T11:05:19.216Z,10.70
2023-01-13T11:10:33.586Z,12.80
2023-01-13T11:15:40.352Z,10.40
2023-01-13T11:20:47.141Z,10.20
2023-01-13T11:26:05.817Z,8.80
2023-01-13T11:31:14.263Z,8.90
2023-01-13T11:36:23.563Z,12.40
2023-01-13T11:41:45.481Z,9.10
2023-01-13T11:46:53.450Z,10.40
2023-01-13T11:52:15.592Z,10.90
2023-01-13T11:57:19.076Z,10.30
2023-01-13T12:02:49.166Z,13.20
2023-01-13T12:08:24.356Z,8.80
2023-01-13T12:13:46.813Z,11.30
2023-01-13T12:19:28.264Z,13.40
2023-01-13T12:24:54.775Z,13.20
2023-01-13T12:30:00.701Z,10.30
2023-01-13T12:35:23.891Z,9.90
2023-01-13T12:41:19.495Z,11.40
2023-01-13T12:46:22.825Z,9.10
2023-01-13T12:51:34.481Z,14.00
2023-01-13T12:56:45.067Z,12.10
2023-01-13T13:02:10.771Z,11.70
2023-01-13T13:07:32.341Z,17.30
2023-01-13T13:13:00.192Z,14.30
2023-01-13T13:18:21.695Z,11.10
2023-01-13T13:23:35.740Z,14.40
2023-01-13T13:28:48.800Z,17.50
2023-01-13T13:34:08.841Z,13.50
2023-01-13T13:39:51.996Z,13.90
2023-01-13T13:45:15.416Z,14.40
2023-01-13T13:50:21.272Z,13.10
2023-01-13T13:55:28.856Z,10.80
2023-01-13T14:00:36.364Z,14.90
2023-01-13T14:05:40.071Z,14.50
2023-01-13T14:10:46.301Z,13.20
2023-01-13T14:16:00.053Z,15.30
2023-01-13T14:21:25.244Z,12.00
2023-01-13T14:26:31.910Z,15.50
2023-01-13T14:31:35.693Z,13.90
2023-01-13T14:36:42.027Z,15.40
2023-01-13T14:41:48.503Z,13.60
2023-01-13T14:46:55.551Z,14.20
2023-01-13T14:52:26.417Z,13.90
2023-01-13T14:57:37.444Z,14.80
2023-01-13T15:02:53.803Z,17.80
2023-01-13T15:08:04.936Z,14.70
2023-01-13T15:13:36.250Z,14.90
2023-01-13T15:18:41.557Z,15.10
2023-01-13T15:23:47.620Z,15.40
2023-01-13T15:28:52.390Z,15.80
2023-01-13T15:33:55.764Z,16.10
2023-01-13T15:39:00.246Z,17.60
2023-01-13T15:44:22.188Z,18.80
2023-01-13T15:49:37.733Z,19.30
2023-01-13T15:54:41.036Z,15.20
2023-01-13T15:59:44.418Z,15.70
2023-01-13T16:04:47.814Z,14.60
2023-01-13T16:09:52.190Z,18.70
2023-01-13T16:14:56.375Z,15.80
2023-01-13T16:20:00.331Z,15.80
2023-01-13T16:25:03.849Z,17.80
2023-01-13T16:30:08.435Z,16.20
2023-01-13T16:35:12.024Z,16.60
2023-01-13T16:40:36.802Z,15.80
2023-01-13T16:45:41.450Z,18.40
2023-01-13T16:50:45.165Z,14.40
2023-01-13T16:55:48.491Z,16.50
2023-01-13T17:00:53.296Z,14.50
2023-01-13T17:05:57.310Z,13.00
2023-01-13T17:11:00.530Z,11.80
2023-01-13T17:16:03.853Z,11.90
2023-01-13T17:21:07.356Z,12.50
2023-01-13T17:26:28.935Z,11.10
2023-01-13T17:31:33.531Z,11.10
2023-01-13T17:36:37.487Z,14.20
2023-01-13T17:41:41.119Z,12.70
2023-01-13T17:46:45.416Z,10.60
2023-01-13T17:51:51.606Z,12.60
2023-01-13T17:56:56.841Z,11.70
2023-01-13T18:02:00.395Z,10.40
2023-01-13T18:07:08.677Z,9.90
2023-01-13T18:12:12.077Z,8.60
2023-01-13T18:17:15.307Z,10.50
2023-01-13T18:22:37.376Z,10.40
2023-01-13T18:27:41.964Z,9.10
2023-01-13T18:32:45.383Z,12.20
2023-01-13T18:37:49.250Z,16.60
2023-01-13T18:42:54.436Z,15.00
2023-01-13T18:48:01.027Z,18.00
2023-01-13T18:53:04.528Z,15.80
2023-01-13T18:58:08.403Z,15.70
2023-01-13T19:03:13.203Z,16.20
2023-01-13T19:08:16.614Z,16.90
2023-01-13T19:13:25.443Z,14.10
2023-01-13T19:18:34.979Z,12.60
2023-01-13T19:23:39.038Z,13.80
2023-01-13T19:28:42.753Z,12.00
2023-01-13T19:33:46.218Z,16.00
2023-01-13T19:38:49.878Z,15.10
2023-01-13T19:44:12.668Z,15.70
2023-01-13T19:49:16.774Z,15.90
2023-01-13T19:54:20.134Z,12.10
2023-01-13T19:59:29.421Z,10.30
2023-01-13T20:04:38.864Z,11.50
2023-01-13T20:09:45.326Z,11.50
2023-01-13T20:14:50.274Z,14.20
2023-01-13T20:19:53.931Z,15.40
2023-01-13T20:24:57.312Z,14.80
2023-01-13T20:30:00.797Z,19.40
2023-01-13T20:35:04.457Z,12.50
2023-01-13T20:40:10.620Z,13.30
2023-01-13T20:45:18.634Z,12.50
2023-01-13T20:50:22.057Z,13.10
2023-01-13T20:55:25.389Z,13.80
2023-01-13T21:00:29.570Z,11.30
2023-01-13T21:05:37.002Z,14.00
2023-01-13T21:10:40.417Z,12.00
2023-01-13T21:15:53.358Z,17.30
2023-01-13T21:21:11.903Z,12.40
2023-01-13T21:26:16.824Z,13.60
2023-01-13T21:31:20.226Z,15.90
2023-01-13T21:36:23.961Z,15.50
2023-01-13T21:41:45.841Z,14.10
2023-01-13T21:47:08.181Z,14.60
2023-01-13T21:52:16.037Z,20.60
2023-01-13T21:57:19.295Z,11.40
2023-01-13T22:02:29.288Z,15.90
2023-01-13T22:07:35.319Z,14.10
2023-01-13T22:12:39.715Z,14.10
2023-01-13T22:17:43.716Z,15.60
2023-01-13T22:22:47.588Z,18.30
2023-01-13T22:27:52.753Z,13.30
2023-01-13T22:32:56.142Z,15.40
2023-01-13T22:37:59.843Z,12.50
2023-01-13T22:43:03.946Z,12.20
2023-01-13T22:48:07.639Z,11.70
2023-01-13T22:53:11.609Z,13.40
2023-01-13T22:58:14.903Z,11.50
2023-01-13T23:03:19.305Z,10.20
2023-01-13T23:08:23.105Z,13.50
2023-01-13T23:13:26.408Z,12.70
2023-01-13T23:18:29.726Z,11.20
2023-01-13T23:23:34.972Z,11.50
2023-01-13T23:28:39.385Z,7.90
2023-01-13T23:33:43.837Z,10.90
2023-01-13T23:38:48.335Z,11.00
2023-01-13T23:43:57.571Z,11.70
2023-01-13T23:49:03.085Z,9.00
2023-01-13T23:54:06.516Z,11.50
2023-01-13T23:59:10.172Z,8.50
